createdAt,value
2022-07-29T00:01:48.091Z,19.39
2022-07-29T00:04:19.198Z,19.38
2022-07-29T00:06:49.833Z,19.38
2022-07-29T00:09:20.491Z,19.39
2022-07-29T00:11:50.418Z,19.35
2022-07-29T00:14:20.179Z,19.45
2022-07-29T00:16:51.315Z,19.29
2022-07-29T00:19:21.349Z,19.18
2022-07-29T00:21:51.317Z,18.79
2022-07-29T00:24:21.798Z,18.82
2022-07-29T00:26:51.838Z,18.60
2022-07-29T00:29:37.362Z,18.49
2022-07-29T00:32:07.682Z,18.29
2022-07-29T00:34:56.862Z,18.31
2022-07-29T00:37:27.353Z,18.45
2022-07-29T00:39:57.694Z,18.43
2022-07-29T00:42:27.903Z,18.43
2022-07-29T00:44:58.397Z,18.25
2022-07-29T00:47:28.254Z,18.16
2022-07-29T00:50:01.771Z,18.07
2022-07-29T00:52:34.086Z,18.01
2022-07-29T00:55:08.817Z,17.90
2022-07-29T00:57:39.647Z,17.86
2022-07-29T01:00:13.634Z,17.97
2022-07-29T01:02:43.723Z,17.71
2022-07-29T01:05:15.056Z,17.79
2022-07-29T01:07:45.493Z,17.92
2022-07-29T01:10:18.476Z,17.69
2022-07-29T01:12:51.571Z,17.60
2022-07-29T01:15:22.508Z,17.55
2022-07-29T01:18:22.250Z,17.49
2022-07-29T01:21:15.714Z,17.41
2022-07-29T01:24:13.612Z,17.52
2022-07-29T01:26:45.566Z,17.57
2022-07-29T01:29:41.271Z,17.49
2022-07-29T01:32:27.621Z,17.64
2022-07-29T01:35:19.643Z,17.62
2022-07-29T01:38:22.764Z,17.66
2022-07-29T01:40:57.444Z,17.47
2022-07-29T01:43:39.163Z,17.53
2022-07-29T01:46:16.324Z,17.23
2022-07-29T01:48:51.441Z,16.90
2022-07-29T01:51:37.331Z,16.53
2022-07-29T01:54:34.582Z,16.84
2022-07-29T01:57:10.512Z,16.72
2022-07-29T01:59:41.122Z,16.60
2022-07-29T02:02:14.083Z,16.42
2022-07-29T02:04:50.340Z,16.74
2022-07-29T02:07:24.339Z,16.99
2022-07-29T02:09:55.388Z,16.90
2022-07-29T02:12:28.452Z,17.26
2022-07-29T02:15:00.587Z,17.25
2022-07-29T02:17:38.856Z,17.48
2022-07-29T02:20:12.220Z,17.53
2022-07-29T02:22:44.282Z,17.45
2022-07-29T02:25:16.288Z,17.36
2022-07-29T02:27:49.495Z,16.80
2022-07-29T02:30:21.872Z,16.99
2022-07-29T02:32:54.264Z,16.94
2022-07-29T02:35:25.397Z,16.32
2022-07-29T02:38:14.588Z,15.72
2022-07-29T02:40:46.256Z,15.54
2022-07-29T02:43:17.446Z,15.81
2022-07-29T02:45:51.816Z,15.65
2022-07-29T02:48:30.132Z,15.14
2022-07-29T02:51:09.465Z,14.99
2022-07-29T02:53:46.212Z,14.90
2022-07-29T02:56:18.877Z,14.94
2022-07-29T02:59:03.499Z,15.19
2022-07-29T03:01:36.020Z,15.19
2022-07-29T03:04:08.128Z,15.48
2022-07-29T03:06:39.759Z,15.66
2022-07-29T03:09:13.690Z,15.74
2022-07-29T03:11:49.828Z,16.01
2022-07-29T03:14:24.454Z,15.87
2022-07-29T03:16:55.089Z,15.82
2022-07-29T03:19:26.045Z,15.76
2022-07-29T03:21:58.191Z,16.00
2022-07-29T03:24:39.617Z,16.12
2022-07-29T03:27:09.648Z,16.20
2022-07-29T03:29:40.204Z,15.88
2022-07-29T03:32:13.760Z,15.93
2022-07-29T03:34:44.549Z,16.02
2022-07-29T03:37:14.612Z,16.18
2022-07-29T03:39:45.650Z,16.25
2022-07-29T03:42:18.748Z,15.98
2022-07-29T03:44:51.355Z,16.12
2022-07-29T03:47:35.173Z,16.25
2022-07-29T03:50:18.257Z,15.72
2022-07-29T03:52:49.433Z,15.16
2022-07-29T03:55:20.254Z,15.14
2022-07-29T03:57:52.011Z,14.97
2022-07-29T04:00:22.618Z,15.10
2022-07-29T04:02:53.154Z,14.76
2022-07-29T04:05:23.643Z,14.24
2022-07-29T04:07:53.670Z,13.99
2022-07-29T04:10:31.597Z,14.00
2022-07-29T04:13:02.712Z,13.87
2022-07-29T04:15:33.276Z,13.88
2022-07-29T04:18:03.403Z,13.78
2022-07-29T04:20:33.277Z,13.75
2022-07-29T04:23:03.732Z,13.85
2022-07-29T04:25:34.651Z,14.05
2022-07-29T04:28:05.282Z,14.10
2022-07-29T04:30:37.099Z,13.85
2022-07-29T04:33:09.274Z,13.47
2022-07-29T04:35:45.705Z,13.73
2022-07-29T04:38:21.184Z,13.59
2022-07-29T04:40:51.270Z,13.40
2022-07-29T04:43:22.754Z,13.64
2022-07-29T04:45:53.643Z,13.13
2022-07-29T04:48:28.558Z,13.18
2022-07-29T04:50:59.389Z,13.15
2022-07-29T04:53:30.150Z,12.93
2022-07-29T04:56:01.369Z,12.96
2022-07-29T04:58:32.062Z,13.00
2022-07-29T05:01:02.355Z,13.04
2022-07-29T05:03:33.330Z,12.70
2022-07-29T05:06:03.606Z,12.90
2022-07-29T05:08:33.721Z,12.99
2022-07-29T05:11:12.155Z,13.23
2022-07-29T05:13:45.694Z,13.36
2022-07-29T05:16:17.415Z,13.29
2022-07-29T05:18:51.202Z,13.14
2022-07-29T05:21:21.438Z,13.39
2022-07-29T05:23:51.537Z,13.16
2022-07-29T05:26:21.813Z,13.27
2022-07-29T05:28:52.743Z,13.08
2022-07-29T05:31:23.086Z,12.79
2022-07-29T05:33:54.288Z,12.57
2022-07-29T05:36:23.997Z,12.72
2022-07-29T05:38:54.300Z,12.91
2022-07-29T05:41:25.046Z,12.96
2022-07-29T05:43:55.246Z,12.98
2022-07-29T05:46:25.917Z,12.86
2022-07-29T05:48:56.176Z,12.59
2022-07-29T05:51:26.871Z,12.72
2022-07-29T05:53:57.039Z,12.77
2022-07-29T05:56:28.092Z,12.81
2022-07-29T05:58:57.802Z,12.62
2022-07-29T06:01:28.506Z,12.58
2022-07-29T06:03:58.823Z,12.58
2022-07-29T06:06:28.956Z,12.68
2022-07-29T06:08:59.036Z,12.79
2022-07-29T06:11:30.120Z,12.85
2022-07-29T06:14:00.330Z,12.88
2022-07-29T06:16:30.658Z,12.64
2022-07-29T06:19:00.906Z,12.72
2022-07-29T06:21:31.145Z,12.64
2022-07-29T06:24:01.019Z,12.32
2022-07-29T06:26:33.361Z,12.47
2022-07-29T06:29:06.655Z,12.45
2022-07-29T06:31:36.779Z,12.39
2022-07-29T06:34:07.347Z,12.42
2022-07-29T06:36:41.392Z,12.37
2022-07-29T06:39:12.354Z,12.39
2022-07-29T06:41:45.251Z,12.11
2022-07-29T06:44:16.871Z,12.14
2022-07-29T06:46:51.245Z,12.48
2022-07-29T06:49:21.466Z,12.14
2022-07-29T06:51:54.351Z,12.11
2022-07-29T06:54:24.471Z,12.20
2022-07-29T06:56:55.408Z,11.99
2022-07-29T06:59:33.467Z,12.51
2022-07-29T07:02:06.447Z,12.43
2022-07-29T07:04:36.715Z,12.24
2022-07-29T07:07:06.909Z,12.62
2022-07-29T07:09:40.697Z,12.45
2022-07-29T07:12:12.050Z,12.58
2022-07-29T07:14:43.714Z,12.75
2022-07-29T07:17:13.873Z,12.73
2022-07-29T07:19:43.995Z,12.52
2022-07-29T07:22:14.161Z,12.42
2022-07-29T07:24:44.062Z,12.23
2022-07-29T07:27:14.917Z,12.41
2022-07-29T07:29:45.100Z,12.31
2022-07-29T07:32:16.650Z,12.06
2022-07-29T07:34:46.839Z,12.01
2022-07-29T07:37:17.514Z,11.72
2022-07-29T07:39:47.867Z,11.67
2022-07-29T07:42:18.506Z,11.48
2022-07-29T07:45:12.050Z,11.37
2022-07-29T07:47:41.976Z,11.31
2022-07-29T07:50:18.501Z,11.28
2022-07-29T07:52:54.760Z,11.47
2022-07-29T07:55:47.476Z,11.20
2022-07-29T07:58:22.731Z,11.53
2022-07-29T08:00:53.043Z,11.48
2022-07-29T08:03:23.103Z,11.55
2022-07-29T08:05:53.916Z,11.52
2022-07-29T08:08:24.536Z,11.39
2022-07-29T08:11:04.285Z,11.31
2022-07-29T08:13:40.437Z,11.41
2022-07-29T08:16:14.327Z,11.44
2022-07-29T08:18:47.113Z,11.53
2022-07-29T08:21:20.622Z,11.38
2022-07-29T08:24:13.835Z,11.07
2022-07-29T08:26:45.352Z,11.09
2022-07-29T08:29:19.746Z,11.30
2022-07-29T08:31:50.609Z,11.18
2022-07-29T08:34:25.709Z,11.06
2022-07-29T08:36:59.618Z,11.05
2022-07-29T08:39:30.487Z,10.96
2022-07-29T08:42:01.052Z,10.93
2022-07-29T08:44:32.139Z,10.89
2022-07-29T08:47:02.541Z,11.15
2022-07-29T08:49:32.747Z,11.17
2022-07-29T08:52:03.792Z,10.79
2022-07-29T08:54:34.596Z,10.73
2022-07-29T08:57:05.516Z,11.01
2022-07-29T08:59:37.340Z,10.92
2022-07-29T09:02:21.389Z,11.06
2022-07-29T09:04:52.044Z,11.20
2022-07-29T09:07:22.487Z,11.18
2022-07-29T09:09:52.498Z,11.39
2022-07-29T09:12:28.719Z,11.42
2022-07-29T09:15:00.302Z,11.71
2022-07-29T09:17:47.474Z,11.55
2022-07-29T09:20:20.688Z,11.91
2022-07-29T09:22:55.542Z,11.75
2022-07-29T09:25:39.440Z,11.80
2022-07-29T09:28:18.693Z,11.85
2022-07-29T09:30:57.836Z,11.88
2022-07-29T09:33:42.526Z,11.76
2022-07-29T09:36:13.645Z,11.75
2022-07-29T09:38:43.323Z,11.76
2022-07-29T09:41:13.285Z,11.99
2022-07-29T09:43:55.447Z,12.01
2022-07-29T09:46:27.209Z,12.01
2022-07-29T09:49:14.838Z,11.84
2022-07-29T09:51:45.159Z,12.08
2022-07-29T09:54:29.790Z,12.15
2022-07-29T09:57:00.012Z,12.17
2022-07-29T09:59:30.598Z,12.23
2022-07-29T10:02:01.153Z,12.27
2022-07-29T10:04:44.807Z,12.16
2022-07-29T10:07:15.146Z,12.30
2022-07-29T10:09:55.059Z,12.05
2022-07-29T10:12:26.156Z,12.23
2022-07-29T10:14:57.439Z,12.33
2022-07-29T10:17:27.701Z,11.92
2022-07-29T10:19:58.942Z,12.38
2022-07-29T10:22:51.775Z,12.27
2022-07-29T10:25:20.621Z,12.37
2022-07-29T10:27:55.977Z,12.29
2022-07-29T10:30:28.188Z,12.28
2022-07-29T10:33:32.769Z,12.42
2022-07-29T10:36:15.036Z,12.08
2022-07-29T10:39:03.916Z,12.18
2022-07-29T10:41:48.708Z,12.13
2022-07-29T10:44:23.826Z,12.26
2022-07-29T10:46:55.611Z,12.18
2022-07-29T10:49:30.625Z,12.29
2022-07-29T10:52:13.346Z,12.36
2022-07-29T10:55:06.908Z,12.31
2022-07-29T10:57:52.448Z,12.40
2022-07-29T11:00:32.978Z,12.42
2022-07-29T11:03:04.726Z,12.32
2022-07-29T11:06:00.354Z,12.31
2022-07-29T11:08:32.892Z,12.31
2022-07-29T11:11:22.439Z,12.20
2022-07-29T11:13:59.823Z,12.44
2022-07-29T11:16:49.683Z,12.21
2022-07-29T11:19:29.777Z,12.48
2022-07-29T11:22:01.839Z,12.29
2022-07-29T11:24:36.498Z,12.24
2022-07-29T11:27:28.551Z,12.34
2022-07-29T11:30:05.777Z,12.34
2022-07-29T11:32:48.551Z,12.13
2022-07-29T11:35:37.583Z,12.21
2022-07-29T11:38:32.219Z,12.41
2022-07-29T11:41:21.279Z,12.35
2022-07-29T11:43:53.726Z,12.39
2022-07-29T11:49:48.373Z,12.43
2022-07-29T11:52:18.685Z,12.42
2022-07-29T11:54:58.195Z,12.55
2022-07-29T11:57:36.260Z,12.54
2022-07-29T12:00:14.642Z,12.71
2022-07-29T12:02:49.010Z,12.80
2022-07-29T12:05:36.384Z,12.71
2022-07-29T12:08:15.353Z,13.00
2022-07-29T12:10:48.032Z,13.14
2022-07-29T12:13:21.043Z,13.20
2022-07-29T12:16:00.069Z,13.39
2022-07-29T12:18:29.847Z,13.33
2022-07-29T12:21:03.361Z,13.54
2022-07-29T12:23:35.539Z,13.28
2022-07-29T12:26:10.958Z,13.40
2022-07-29T12:28:52.672Z,13.51
2022-07-29T12:31:41.877Z,14.11
2022-07-29T12:34:18.499Z,14.17
2022-07-29T12:36:48.924Z,14.58
2022-07-29T12:39:20.108Z,14.79
2022-07-29T12:41:50.712Z,14.60
2022-07-29T12:44:21.416Z,14.48
2022-07-29T12:47:05.350Z,14.54
2022-07-29T12:49:38.138Z,14.21
2022-07-29T12:52:32.689Z,14.49
2022-07-29T12:55:04.369Z,15.03
2022-07-29T12:57:35.051Z,15.00
2022-07-29T13:00:13.162Z,15.44
2022-07-29T13:02:45.582Z,15.81
2022-07-29T13:05:16.411Z,15.60
2022-07-29T13:07:55.090Z,15.32
2022-07-29T13:10:27.859Z,15.41
2022-07-29T13:13:08.565Z,15.07
2022-07-29T13:15:41.030Z,15.30
2022-07-29T13:18:40.957Z,15.00
2022-07-29T13:21:16.593Z,14.84
2022-07-29T13:23:48.466Z,14.74
2022-07-29T13:26:21.782Z,14.71
2022-07-29T13:28:52.673Z,14.93
2022-07-29T13:31:24.181Z,14.70
2022-07-29T13:33:54.605Z,15.13
2022-07-29T13:36:25.329Z,15.09
2022-07-29T13:38:55.559Z,14.95
2022-07-29T13:41:26.250Z,15.01
2022-07-29T13:43:56.894Z,15.61
2022-07-29T13:46:27.649Z,15.22
2022-07-29T13:48:57.934Z,15.20
2022-07-29T13:51:30.643Z,14.80
2022-07-29T13:54:00.871Z,14.68
2022-07-29T13:56:34.757Z,15.00
2022-07-29T13:59:05.271Z,14.76
2022-07-29T14:01:39.030Z,14.73
2022-07-29T14:04:10.838Z,14.67
2022-07-29T14:06:42.978Z,14.61
2022-07-29T14:09:16.796Z,14.57
2022-07-29T14:11:48.003Z,14.68
2022-07-29T14:14:18.319Z,14.68
2022-07-29T14:16:52.189Z,14.74
2022-07-29T14:19:22.736Z,14.58
2022-07-29T14:21:53.467Z,14.68
2022-07-29T14:24:23.805Z,14.51
2022-07-29T14:26:54.755Z,14.57
2022-07-29T14:29:25.324Z,14.40
2022-07-29T14:32:09.701Z,14.52
2022-07-29T14:34:40.948Z,14.55
2022-07-29T14:37:16.069Z,14.76
2022-07-29T14:39:46.452Z,14.91
2022-07-29T14:42:17.586Z,14.45
2022-07-29T14:44:50.158Z,14.57
2022-07-29T14:47:23.111Z,14.46
2022-07-29T14:49:53.344Z,14.47
2022-07-29T14:52:23.998Z,14.52
2022-07-29T14:54:54.313Z,14.70
2022-07-29T14:57:27.959Z,14.67
2022-07-29T14:59:58.427Z,14.89
2022-07-29T15:02:52.072Z,14.85
2022-07-29T15:05:19.327Z,15.58
2022-07-29T15:07:49.965Z,15.80
2022-07-29T15:10:24.859Z,15.75
2022-07-29T15:12:56.124Z,15.80
2022-07-29T15:15:26.483Z,16.33
2022-07-29T15:17:57.342Z,16.57
2022-07-29T15:20:29.149Z,16.80
2022-07-29T15:22:59.757Z,16.63
2022-07-29T15:25:32.883Z,16.48
2022-07-29T15:28:05.054Z,16.09
2022-07-29T15:30:36.727Z,16.26
2022-07-29T15:33:13.412Z,16.00
2022-07-29T15:35:43.640Z,15.82
2022-07-29T15:38:14.350Z,15.43
2022-07-29T15:40:45.698Z,15.62
2022-07-29T15:43:16.442Z,15.25
2022-07-29T15:46:06.995Z,14.91
2022-07-29T15:48:40.007Z,15.13
2022-07-29T15:51:10.361Z,14.97
2022-07-29T15:53:41.098Z,14.89
2022-07-29T15:56:11.330Z,14.99
2022-07-29T15:58:41.982Z,15.04
2022-07-29T16:01:12.890Z,15.27
2022-07-29T16:03:46.245Z,15.24
2022-07-29T16:06:16.867Z,15.49
2022-07-29T16:08:47.613Z,15.28
2022-07-29T16:11:17.876Z,15.01
2022-07-29T16:13:48.659Z,15.35
2022-07-29T16:16:19.775Z,15.29
2022-07-29T16:18:50.660Z,15.15
2022-07-29T16:21:20.376Z,15.09
2022-07-29T16:23:51.237Z,14.88
2022-07-29T16:26:20.938Z,15.35
2022-07-29T16:28:50.835Z,15.53
2022-07-29T16:31:24.381Z,15.85
2022-07-29T16:33:58.016Z,16.41
2022-07-29T16:36:28.650Z,16.53
2022-07-29T16:38:58.934Z,16.73
2022-07-29T16:41:30.863Z,16.74
2022-07-29T16:44:01.164Z,16.20
2022-07-29T16:46:32.180Z,16.27
2022-07-29T16:49:02.693Z,15.78
2022-07-29T16:51:33.412Z,15.64
2022-07-29T16:54:03.682Z,15.39
2022-07-29T16:56:34.507Z,15.75
2022-07-29T16:59:04.395Z,15.70
2022-07-29T17:01:34.993Z,15.90
2022-07-29T17:04:08.279Z,15.83
2022-07-29T17:06:43.461Z,15.43
2022-07-29T17:09:17.254Z,15.84
2022-07-29T17:11:55.090Z,16.19
2022-07-29T17:14:28.008Z,15.98
2022-07-29T17:17:02.017Z,16.16
2022-07-29T17:19:35.177Z,16.34
2022-07-29T17:22:17.097Z,16.02
2022-07-29T17:24:49.986Z,16.10
2022-07-29T17:27:20.953Z,15.93
2022-07-29T17:29:50.562Z,15.46
2022-07-29T17:32:21.087Z,15.41
2022-07-29T17:34:51.322Z,14.99
2022-07-29T17:37:22.442Z,14.93
2022-07-29T17:39:53.750Z,15.13
2022-07-29T17:42:29.277Z,15.43
2022-07-29T17:45:00.044Z,15.30
2022-07-29T17:47:30.807Z,15.05
2022-07-29T17:50:00.950Z,14.97
2022-07-29T17:52:31.590Z,14.78
2022-07-29T17:55:01.730Z,14.92
2022-07-29T17:57:31.862Z,15.20
2022-07-29T18:00:01.891Z,15.09
2022-07-29T18:02:34.402Z,14.92
2022-07-29T18:05:07.722Z,15.23
2022-07-29T18:07:38.483Z,15.17
2022-07-29T18:10:09.047Z,14.92
2022-07-29T18:12:39.661Z,14.99
2022-07-29T18:15:10.147Z,15.30
2022-07-29T18:17:57.265Z,15.19
2022-07-29T18:20:28.597Z,15.72
2022-07-29T18:22:59.541Z,15.56
2022-07-29T18:25:30.735Z,15.27
2022-07-29T18:28:01.416Z,15.36
2022-07-29T18:30:32.008Z,15.63
2022-07-29T18:33:20.727Z,15.85
2022-07-29T18:36:11.149Z,16.12
2022-07-29T18:38:42.857Z,16.21
2022-07-29T18:41:13.124Z,16.55
2022-07-29T18:43:43.747Z,16.66
2022-07-29T18:46:14.070Z,16.72
2022-07-29T18:48:45.033Z,16.61
2022-07-29T18:51:14.672Z,16.32
2022-07-29T18:53:46.929Z,16.04
2022-07-29T18:56:17.085Z,16.00
2022-07-29T18:58:47.763Z,15.96
2022-07-29T19:01:17.975Z,16.40
2022-07-29T19:03:48.635Z,16.01
2022-07-29T19:06:24.027Z,15.60
2022-07-29T19:08:56.475Z,15.94
2022-07-29T19:11:26.598Z,15.97
2022-07-29T19:13:57.280Z,15.64
2022-07-29T19:16:27.484Z,15.41
2022-07-29T19:18:58.771Z,15.42
2022-07-29T19:21:31.605Z,15.46
2022-07-29T19:24:07.760Z,15.56
2022-07-29T19:26:45.014Z,15.20
2022-07-29T19:29:16.467Z,15.53
2022-07-29T19:31:47.336Z,15.37
2022-07-29T19:34:18.078Z,15.51
2022-07-29T19:36:48.256Z,15.69
2022-07-29T19:39:18.865Z,15.39
2022-07-29T19:42:06.650Z,15.25
2022-07-29T19:44:37.255Z,15.33
2022-07-29T19:47:07.524Z,15.35
2022-07-29T19:49:40.715Z,15.37
2022-07-29T19:52:10.913Z,15.33
2022-07-29T19:54:41.512Z,15.03
2022-07-29T19:57:11.671Z,15.04
2022-07-29T19:59:42.968Z,15.21
2022-07-29T20:02:14.598Z,15.27
2022-07-29T20:04:46.902Z,15.04
2022-07-29T20:07:17.141Z,14.98
2022-07-29T20:09:50.478Z,15.40
2022-07-29T20:12:20.618Z,15.52
2022-07-29T20:14:54.587Z,15.22
2022-07-29T20:17:25.456Z,15.22
2022-07-29T20:19:58.105Z,15.29
2022-07-29T20:22:28.791Z,15.32
2022-07-29T20:24:59.478Z,15.22
2022-07-29T20:27:29.652Z,15.39
2022-07-29T20:29:59.732Z,15.12
2022-07-29T20:32:29.818Z,15.17
2022-07-29T20:34:59.896Z,15.08
2022-07-29T20:37:29.823Z,15.38
2022-07-29T20:40:00.516Z,15.31
2022-07-29T20:42:30.766Z,15.68
2022-07-29T20:45:03.430Z,15.48
2022-07-29T20:47:37.795Z,15.24
2022-07-29T20:50:09.103Z,15.26
2022-07-29T20:52:41.714Z,15.14
2022-07-29T20:55:12.988Z,15.39
2022-07-29T20:57:46.164Z,15.66
2022-07-29T21:00:17.236Z,15.48
2022-07-29T21:02:47.744Z,15.58
2022-07-29T21:05:18.438Z,15.52
2022-07-29T21:07:48.572Z,15.55
2022-07-29T21:10:19.542Z,15.48
2022-07-29T21:12:50.465Z,15.53
2022-07-29T21:15:22.755Z,15.37
2022-07-29T21:18:00.813Z,15.55
2022-07-29T21:20:32.230Z,15.45
2022-07-29T21:23:02.743Z,15.50
2022-07-29T21:25:35.575Z,15.33
2022-07-29T21:28:23.811Z,15.35
2022-07-29T21:30:55.903Z,15.49
2022-07-29T21:33:27.324Z,15.12
2022-07-29T21:36:20.184Z,15.22
2022-07-29T21:38:48.686Z,15.30
2022-07-29T21:41:18.866Z,15.26
2022-07-29T21:43:48.963Z,15.14
2022-07-29T21:46:19.270Z,15.27
2022-07-29T21:48:54.213Z,15.17
2022-07-29T21:51:24.326Z,15.18
2022-07-29T21:53:57.349Z,15.23
2022-07-29T21:56:28.032Z,15.20
2022-07-29T21:58:58.439Z,15.17
2022-07-29T22:01:28.546Z,15.11
2022-07-29T22:04:09.542Z,14.88
2022-07-29T22:06:39.672Z,15.00
2022-07-29T22:09:10.114Z,15.03
2022-07-29T22:11:40.279Z,14.98
2022-07-29T22:14:10.419Z,15.12
2022-07-29T22:16:40.439Z,15.11
2022-07-29T22:19:10.439Z,15.12
2022-07-29T22:21:40.733Z,15.00
2022-07-29T22:24:12.312Z,14.98
2022-07-29T22:26:42.820Z,14.90
2022-07-29T22:29:13.627Z,14.88
2022-07-29T22:31:43.610Z,14.71
2022-07-29T22:34:14.544Z,14.70
2022-07-29T22:36:44.823Z,14.63
2022-07-29T22:39:15.702Z,14.57
2022-07-29T22:41:46.352Z,14.49
2022-07-29T22:44:16.845Z,14.49
2022-07-29T22:46:46.903Z,14.52
2022-07-29T22:49:17.450Z,14.49
2022-07-29T22:51:47.851Z,14.48
2022-07-29T22:54:18.381Z,14.41
2022-07-29T22:56:48.499Z,14.39
2022-07-29T22:59:19.362Z,14.36
2022-07-29T23:01:49.534Z,14.39
2022-07-29T23:04:24.611Z,14.53
2022-07-29T23:06:54.667Z,14.57
2022-07-29T23:09:25.183Z,14.58
2022-07-29T23:11:55.896Z,14.61
2022-07-29T23:14:26.440Z,14.62
2022-07-29T23:16:56.532Z,14.71
2022-07-29T23:19:27.009Z,14.67
2022-07-29T23:21:57.064Z,14.72
2022-07-29T23:24:27.598Z,14.69
2022-07-29T23:26:57.905Z,14.68
2022-07-29T23:29:28.666Z,14.77
2022-07-29T23:31:58.707Z,14.79
2022-07-29T23:34:29.196Z,14.78
2022-07-29T23:36:59.248Z,14.78
2022-07-29T23:39:29.904Z,14.66
2022-07-29T23:41:59.974Z,14.85
2022-07-29T23:44:30.474Z,14.84
2022-07-29T23:47:00.696Z,14.85
2022-07-29T23:49:32.100Z,14.69
2022-07-29T23:52:02.419Z,14.70
2022-07-29T23:54:32.911Z,14.62
2022-07-29T23:57:03.351Z,14.74
2022-07-29T23:59:34.176Z,14.70
